Cottonwood, Oklahoma
Current Conditions -  °F | °C
As of 8:55 AM on Monday 22 Dec 2014 (Local Time) from KAQR Reporting Station
Broken Clouds Broken Clouds  
Wind Chill: 12°   Ceiling: 2500
Heat Index: 12°   Visibility: 10mi
Dew Point: 10°   Wind: 5mph
Humidity: 88%   Direction: 170°S
Pressure: 29.61"   Gusts: NA
Location:  34.5844°N, 96.2026°W
Report Text: KAQR 221455Z AUTO 17004KT 10SM SCT018 BKN025 12/10 A2961 RMK AO2
Loading
Personal Weather Stations






























Interactive Weather Map New forecast layout! Learn more

10-Day Weather Forecast

Advertisements
Track Severe Weather on mobile